sensor_id;sensor_type;location;lat;lon;timestamp;P1;durP1;ratioP1;P2;durP2;ratioP2
39782;SDS011;25462;51.164;17.100;2022-08-19T00:04:24;6.70;;;6.10;;
39782;SDS011;25462;51.164;17.100;2022-08-19T00:09:27;6.40;;;5.80;;
39782;SDS011;25462;51.164;17.100;2022-08-19T00:14:30;13.70;;;6.40;;
39782;SDS011;25462;51.164;17.100;2022-08-19T00:19:32;6.60;;;5.40;;
39782;SDS011;25462;51.164;17.100;2022-08-19T00:24:34;6.30;;;5.70;;
39782;SDS011;25462;51.164;17.100;2022-08-19T00:29:38;7.00;;;5.80;;
39782;SDS011;25462;51.164;17.100;2022-08-19T00:34:40;6.80;;;6.10;;
39782;SDS011;25462;51.164;17.100;2022-08-19T00:44:44;6.40;;;5.70;;
39782;SDS011;25462;51.164;17.100;2022-08-19T00:49:50;10.40;;;6.30;;
39782;SDS011;25462;51.164;17.100;2022-08-19T00:54:53;8.60;;;6.20;;
39782;SDS011;25462;51.164;17.100;2022-08-19T00:59:55;7.10;;;6.40;;
39782;SDS011;25462;51.164;17.100;2022-08-19T01:05:05;6.90;;;6.10;;
39782;SDS011;25462;51.164;17.100;2022-08-19T01:10:12;7.80;;;6.30;;
39782;SDS011;25462;51.164;17.100;2022-08-19T01:15:19;6.60;;;5.80;;
39782;SDS011;25462;51.164;17.100;2022-08-19T01:20:23;8.30;;;6.30;;
39782;SDS011;25462;51.164;17.100;2022-08-19T01:25:29;6.90;;;6.20;;
39782;SDS011;25462;51.164;17.100;2022-08-19T01:30:34;8.00;;;5.70;;
39782;SDS011;25462;51.164;17.100;2022-08-19T01:35:36;7.40;;;6.70;;
39782;SDS011;25462;51.164;17.100;2022-08-19T01:40:38;7.10;;;6.40;;
39782;SDS011;25462;51.164;17.100;2022-08-19T01:45:41;6.50;;;5.80;;
39782;SDS011;25462;51.164;17.100;2022-08-19T01:50:43;7.90;;;6.70;;
39782;SDS011;25462;51.164;17.100;2022-08-19T01:55:45;8.30;;;6.00;;
39782;SDS011;25462;51.164;17.100;2022-08-19T02:00:48;8.10;;;5.50;;
39782;SDS011;25462;51.164;17.100;2022-08-19T02:05:57;9.50;;;7.10;;
39782;SDS011;25462;51.164;17.100;2022-08-19T02:11:02;6.80;;;6.00;;
39782;SDS011;25462;51.164;17.100;2022-08-19T02:16:05;8.90;;;6.20;;
39782;SDS011;25462;51.164;17.100;2022-08-19T02:26:09;8.90;;;5.90;;
39782;SDS011;25462;51.164;17.100;2022-08-19T02:31:12;6.90;;;6.20;;
39782;SDS011;25462;51.164;17.100;2022-08-19T02:36:18;7.30;;;6.60;;
39782;SDS011;25462;51.164;17.100;2022-08-19T02:41:23;9.80;;;7.60;;
39782;SDS011;25462;51.164;17.100;2022-08-19T02:46:29;9.20;;;6.70;;
39782;SDS011;25462;51.164;17.100;2022-08-19T02:51:33;9.40;;;6.70;;
39782;SDS011;25462;51.164;17.100;2022-08-19T02:56:40;7.50;;;6.80;;
39782;SDS011;25462;51.164;17.100;2022-08-19T03:01:43;7.90;;;7.20;;
39782;SDS011;25462;51.164;17.100;2022-08-19T03:11:47;8.10;;;7.20;;
39782;SDS011;25462;51.164;17.100;2022-08-19T03:16:53;8.30;;;6.90;;
39782;SDS011;25462;51.164;17.100;2022-08-19T03:21:55;8.40;;;7.20;;
39782;SDS011;25462;51.164;17.100;2022-08-19T03:26:57;8.80;;;7.10;;
39782;SDS011;25462;51.164;17.100;2022-08-19T03:32:00;8.50;;;7.70;;
39782;SDS011;25462;51.164;17.100;2022-08-19T03:37:07;7.90;;;7.20;;
39782;SDS011;25462;51.164;17.100;2022-08-19T03:42:11;11.00;;;7.70;;
39782;SDS011;25462;51.164;17.100;2022-08-19T03:47:33;8.50;;;7.60;;
39782;SDS011;25462;51.164;17.100;2022-08-19T03:52:35;8.30;;;7.50;;
39782;SDS011;25462;51.164;17.100;2022-08-19T03:57:37;8.30;;;7.50;;
39782;SDS011;25462;51.164;17.100;2022-08-19T04:02:40;9.50;;;8.40;;
39782;SDS011;25462;51.164;17.100;2022-08-19T04:07:43;8.70;;;7.90;;
39782;SDS011;25462;51.164;17.100;2022-08-19T04:12:51;9.30;;;7.70;;
39782;SDS011;25462;51.164;17.100;2022-08-19T04:17:53;10.80;;;7.60;;
39782;SDS011;25462;51.164;17.100;2022-08-19T04:22:56;10.70;;;8.40;;
39782;SDS011;25462;51.164;17.100;2022-08-19T04:27:58;8.60;;;7.80;;
39782;SDS011;25462;51.164;17.100;2022-08-19T04:33:00;8.20;;;7.40;;
39782;SDS011;25462;51.164;17.100;2022-08-19T04:38:02;9.50;;;7.60;;
39782;SDS011;25462;51.164;17.100;2022-08-19T04:43:06;8.10;;;7.40;;
39782;SDS011;25462;51.164;17.100;2022-08-19T04:48:12;8.40;;;7.50;;
39782;SDS011;25462;51.164;17.100;2022-08-19T04:53:29;9.60;;;8.20;;
39782;SDS011;25462;51.164;17.100;2022-08-19T04:58:40;8.50;;;7.70;;
39782;SDS011;25462;51.164;17.100;2022-08-19T05:03:43;10.70;;;8.80;;
39782;SDS011;25462;51.164;17.100;2022-08-19T05:08:54;9.50;;;8.40;;
39782;SDS011;25462;51.164;17.100;2022-08-19T05:14:02;9.30;;;8.00;;
39782;SDS011;25462;51.164;17.100;2022-08-19T05:19:04;9.50;;;8.10;;
39782;SDS011;25462;51.164;17.100;2022-08-19T05:24:25;11.80;;;8.20;;
39782;SDS011;25462;51.164;17.100;2022-08-19T05:29:29;10.30;;;8.90;;
39782;SDS011;25462;51.164;17.100;2022-08-19T05:34:37;10.60;;;9.50;;
39782;SDS011;25462;51.164;17.100;2022-08-19T05:39:39;10.40;;;9.00;;
39782;SDS011;25462;51.164;17.100;2022-08-19T05:44:43;11.30;;;9.10;;
39782;SDS011;25462;51.164;17.100;2022-08-19T05:49:46;13.60;;;9.60;;
39782;SDS011;25462;51.164;17.100;2022-08-19T05:54:48;9.90;;;8.90;;
39782;SDS011;25462;51.164;17.100;2022-08-19T05:59:52;15.00;;;9.80;;
39782;SDS011;25462;51.164;17.100;2022-08-19T06:04:59;13.00;;;9.20;;
39782;SDS011;25462;51.164;17.100;2022-08-19T06:10:04;14.40;;;9.60;;
39782;SDS011;25462;51.164;17.100;2022-08-19T06:15:09;9.70;;;8.50;;
39782;SDS011;25462;51.164;17.100;2022-08-19T06:20:14;9.80;;;8.70;;
39782;SDS011;25462;51.164;17.100;2022-08-19T06:25:16;11.20;;;9.60;;
39782;SDS011;25462;51.164;17.100;2022-08-19T06:30:19;12.90;;;9.40;;
39782;SDS011;25462;51.164;17.100;2022-08-19T06:35:21;10.10;;;9.10;;
39782;SDS011;25462;51.164;17.100;2022-08-19T06:40:24;12.60;;;9.40;;
39782;SDS011;25462;51.164;17.100;2022-08-19T06:45:26;11.90;;;9.80;;
39782;SDS011;25462;51.164;17.100;2022-08-19T06:50:40;11.50;;;9.50;;
39782;SDS011;25462;51.164;17.100;2022-08-19T06:55:42;13.70;;;9.60;;
39782;SDS011;25462;51.164;17.100;2022-08-19T07:00:44;11.10;;;9.20;;
39782;SDS011;25462;51.164;17.100;2022-08-19T07:05:46;14.40;;;9.90;;
39782;SDS011;25462;51.164;17.100;2022-08-19T07:10:48;11.10;;;9.40;;
39782;SDS011;25462;51.164;17.100;2022-08-19T07:15:51;11.40;;;9.00;;
39782;SDS011;25462;51.164;17.100;2022-08-19T07:21:01;12.40;;;8.20;;
39782;SDS011;25462;51.164;17.100;2022-08-19T07:26:16;15.20;;;8.60;;
39782;SDS011;25462;51.164;17.100;2022-08-19T07:31:20;10.40;;;8.60;;
39782;SDS011;25462;51.164;17.100;2022-08-19T07:36:28;13.00;;;8.80;;
39782;SDS011;25462;51.164;17.100;2022-08-19T07:41:35;8.30;;;7.50;;
39782;SDS011;25462;51.164;17.100;2022-08-19T07:46:39;13.00;;;8.60;;
39782;SDS011;25462;51.164;17.100;2022-08-19T07:51:43;12.40;;;8.10;;
39782;SDS011;25462;51.164;17.100;2022-08-19T07:56:56;10.50;;;7.20;;
39782;SDS011;25462;51.164;17.100;2022-08-19T08:01:58;8.70;;;7.70;;
39782;SDS011;25462;51.164;17.100;2022-08-19T08:07:05;10.70;;;7.20;;
39782;SDS011;25462;51.164;17.100;2022-08-19T08:12:36;12.80;;;7.60;;
39782;SDS011;25462;51.164;17.100;2022-08-19T08:17:46;10.20;;;7.00;;
39782;SDS011;25462;51.164;17.100;2022-08-19T08:23:00;12.40;;;7.50;;
39782;SDS011;25462;51.164;17.100;2022-08-19T08:28:21;9.20;;;6.80;;
39782;SDS011;25462;51.164;17.100;2022-08-19T08:33:24;8.00;;;6.90;;
39782;SDS011;25462;51.164;17.100;2022-08-19T08:38:38;9.20;;;7.50;;
39782;SDS011;25462;51.164;17.100;2022-08-19T08:43:44;10.30;;;6.80;;
39782;SDS011;25462;51.164;17.100;2022-08-19T08:54:08;9.10;;;6.30;;
39782;SDS011;25462;51.164;17.100;2022-08-19T08:59:20;7.00;;;6.30;;
39782;SDS011;25462;51.164;17.100;2022-08-19T09:04:36;8.00;;;6.50;;
39782;SDS011;25462;51.164;17.100;2022-08-19T09:09:40;6.70;;;6.00;;
39782;SDS011;25462;51.164;17.100;2022-08-19T09:14:48;9.70;;;5.70;;
39782;SDS011;25462;51.164;17.100;2022-08-19T09:20:08;6.60;;;6.00;;
39782;SDS011;25462;51.164;17.100;2022-08-19T09:25:21;8.10;;;5.50;;
39782;SDS011;25462;51.164;17.100;2022-08-19T09:30:29;8.50;;;6.40;;
39782;SDS011;25462;51.164;17.100;2022-08-19T09:35:35;10.60;;;7.20;;
39782;SDS011;25462;51.164;17.100;2022-08-19T09:41:01;8.70;;;6.70;;
39782;SDS011;25462;51.164;17.100;2022-08-19T09:46:06;7.20;;;6.40;;
39782;SDS011;25462;51.164;17.100;2022-08-19T09:51:15;11.10;;;5.90;;
39782;SDS011;25462;51.164;17.100;2022-08-19T09:56:25;12.40;;;6.80;;
39782;SDS011;25462;51.164;17.100;2022-08-19T10:01:27;11.20;;;6.60;;
39782;SDS011;25462;51.164;17.100;2022-08-19T10:06:31;13.90;;;6.60;;
39782;SDS011;25462;51.164;17.100;2022-08-19T10:11:48;11.30;;;6.10;;
39782;SDS011;25462;51.164;17.100;2022-08-19T10:16:56;8.80;;;6.40;;
39782;SDS011;25462;51.164;17.100;2022-08-19T10:22:02;11.60;;;6.40;;
39782;SDS011;25462;51.164;17.100;2022-08-19T10:27:05;7.10;;;6.40;;
39782;SDS011;25462;51.164;17.100;2022-08-19T10:32:10;8.50;;;4.90;;
39782;SDS011;25462;51.164;17.100;2022-08-19T10:37:16;8.90;;;5.70;;
39782;SDS011;25462;51.164;17.100;2022-08-19T10:42:25;9.70;;;5.80;;
39782;SDS011;25462;51.164;17.100;2022-08-19T10:47:27;10.80;;;5.40;;
39782;SDS011;25462;51.164;17.100;2022-08-19T10:52:32;5.00;;;4.50;;
39782;SDS011;25462;51.164;17.100;2022-08-19T10:57:37;8.20;;;4.70;;
39782;SDS011;25462;51.164;17.100;2022-08-19T11:02:59;9.80;;;4.80;;
39782;SDS011;25462;51.164;17.100;2022-08-19T11:08:01;5.60;;;5.00;;
39782;SDS011;25462;51.164;17.100;2022-08-19T11:13:24;7.70;;;4.50;;
39782;SDS011;25462;51.164;17.100;2022-08-19T11:18:26;7.70;;;4.90;;
39782;SDS011;25462;51.164;17.100;2022-08-19T11:23:30;5.60;;;4.30;;
39782;SDS011;25462;51.164;17.100;2022-08-19T11:28:33;5.50;;;4.70;;
39782;SDS011;25462;51.164;17.100;2022-08-19T11:33:36;5.40;;;4.90;;
39782;SDS011;25462;51.164;17.100;2022-08-19T11:38:38;8.60;;;4.40;;
39782;SDS011;25462;51.164;17.100;2022-08-19T11:43:40;6.90;;;4.70;;
39782;SDS011;25462;51.164;17.100;2022-08-19T11:48:43;6.80;;;3.70;;
39782;SDS011;25462;51.164;17.100;2022-08-19T11:53:48;6.60;;;4.30;;
39782;SDS011;25462;51.164;17.100;2022-08-19T11:58:53;8.30;;;3.60;;
39782;SDS011;25462;51.164;17.100;2022-08-19T12:03:56;9.80;;;3.60;;
39782;SDS011;25462;51.164;17.100;2022-08-19T12:09:03;5.50;;;4.00;;
39782;SDS011;25462;51.164;17.100;2022-08-19T12:14:12;7.10;;;4.00;;
39782;SDS011;25462;51.164;17.100;2022-08-19T12:19:19;9.20;;;4.50;;
39782;SDS011;25462;51.164;17.100;2022-08-19T12:24:35;6.10;;;2.90;;
39782;SDS011;25462;51.164;17.100;2022-08-19T12:29:37;5.60;;;2.60;;
39782;SDS011;25462;51.164;17.100;2022-08-19T12:34:39;4.80;;;2.40;;
39782;SDS011;25462;51.164;17.100;2022-08-19T12:39:42;5.20;;;3.00;;
39782;SDS011;25462;51.164;17.100;2022-08-19T12:44:44;8.60;;;3.80;;
39782;SDS011;25462;51.164;17.100;2022-08-19T12:49:47;3.60;;;2.40;;
39782;SDS011;25462;51.164;17.100;2022-08-19T12:54:57;5.80;;;2.20;;
39782;SDS011;25462;51.164;17.100;2022-08-19T13:00:02;7.30;;;2.90;;
39782;SDS011;25462;51.164;17.100;2022-08-19T13:05:13;5.50;;;2.80;;
39782;SDS011;25462;51.164;17.100;2022-08-19T13:10:19;5.00;;;2.80;;
39782;SDS011;25462;51.164;17.100;2022-08-19T13:15:22;9.90;;;3.00;;
39782;SDS011;25462;51.164;17.100;2022-08-19T13:20:25;4.30;;;3.50;;
39782;SDS011;25462;51.164;17.100;2022-08-19T13:25:28;2.70;;;2.40;;
39782;SDS011;25462;51.164;17.100;2022-08-19T13:30:31;6.90;;;2.50;;
39782;SDS011;25462;51.164;17.100;2022-08-19T13:35:56;6.60;;;2.60;;
39782;SDS011;25462;51.164;17.100;2022-08-19T13:41:04;10.70;;;3.40;;
39782;SDS011;25462;51.164;17.100;2022-08-19T13:46:13;10.70;;;2.80;;
39782;SDS011;25462;51.164;17.100;2022-08-19T13:51:16;5.90;;;2.40;;
39782;SDS011;25462;51.164;17.100;2022-08-19T13:56:19;7.10;;;3.00;;
39782;SDS011;25462;51.164;17.100;2022-08-19T14:01:27;7.50;;;2.80;;
39782;SDS011;25462;51.164;17.100;2022-08-19T14:06:29;9.10;;;2.70;;
39782;SDS011;25462;51.164;17.100;2022-08-19T14:11:31;6.20;;;3.10;;
39782;SDS011;25462;51.164;17.100;2022-08-19T14:16:34;6.70;;;2.80;;
39782;SDS011;25462;51.164;17.100;2022-08-19T14:21:37;5.80;;;2.50;;
39782;SDS011;25462;51.164;17.100;2022-08-19T14:26:43;15.20;;;3.80;;
39782;SDS011;25462;51.164;17.100;2022-08-19T14:31:45;5.60;;;2.90;;
39782;SDS011;25462;51.164;17.100;2022-08-19T14:36:47;5.00;;;2.80;;
39782;SDS011;25462;51.164;17.100;2022-08-19T14:41:50;7.20;;;2.90;;
39782;SDS011;25462;51.164;17.100;2022-08-19T14:46:59;6.60;;;3.00;;
39782;SDS011;25462;51.164;17.100;2022-08-19T14:52:03;5.10;;;3.10;;
39782;SDS011;25462;51.164;17.100;2022-08-19T14:57:05;3.70;;;3.00;;
39782;SDS011;25462;51.164;17.100;2022-08-19T15:02:07;6.30;;;3.00;;
39782;SDS011;25462;51.164;17.100;2022-08-19T15:07:29;7.80;;;3.20;;
39782;SDS011;25462;51.164;17.100;2022-08-19T15:12:31;6.10;;;3.10;;
39782;SDS011;25462;51.164;17.100;2022-08-19T15:17:35;4.20;;;2.80;;
39782;SDS011;25462;51.164;17.100;2022-08-19T15:22:55;9.20;;;3.90;;
39782;SDS011;25462;51.164;17.100;2022-08-19T15:27:58;6.20;;;5.30;;
39782;SDS011;25462;51.164;17.100;2022-08-19T15:33:02;9.40;;;6.00;;
39782;SDS011;25462;51.164;17.100;2022-08-19T15:38:04;7.60;;;6.10;;
39782;SDS011;25462;51.164;17.100;2022-08-19T15:43:08;15.20;;;7.20;;
39782;SDS011;25462;51.164;17.100;2022-08-19T15:48:10;9.90;;;7.20;;
39782;SDS011;25462;51.164;17.100;2022-08-19T15:53:13;14.00;;;8.30;;
39782;SDS011;25462;51.164;17.100;2022-08-19T15:58:17;11.90;;;7.90;;
39782;SDS011;25462;51.164;17.100;2022-08-19T16:03:37;11.60;;;9.70;;
39782;SDS011;25462;51.164;17.100;2022-08-19T16:08:59;11.20;;;10.10;;
39782;SDS011;25462;51.164;17.100;2022-08-19T16:14:02;15.60;;;10.20;;
39782;SDS011;25462;51.164;17.100;2022-08-19T16:19:06;12.10;;;10.50;;
39782;SDS011;25462;51.164;17.100;2022-08-19T16:24:14;12.40;;;10.80;;
39782;SDS011;25462;51.164;17.100;2022-08-19T16:29:18;12.50;;;11.20;;
39782;SDS011;25462;51.164;17.100;2022-08-19T16:34:43;13.30;;;11.90;;
39782;SDS011;25462;51.164;17.100;2022-08-19T16:39:46;12.60;;;11.20;;
39782;SDS011;25462;51.164;17.100;2022-08-19T16:44:49;12.20;;;11.00;;
39782;SDS011;25462;51.164;17.100;2022-08-19T16:49:51;13.90;;;11.00;;
39782;SDS011;25462;51.164;17.100;2022-08-19T16:54:57;12.90;;;11.10;;
39782;SDS011;25462;51.164;17.100;2022-08-19T17:00:03;14.70;;;11.30;;
39782;SDS011;25462;51.164;17.100;2022-08-19T17:05:11;12.30;;;11.00;;
39782;SDS011;25462;51.164;17.100;2022-08-19T17:10:13;14.70;;;11.50;;
39782;SDS011;25462;51.164;17.100;2022-08-19T17:15:15;15.00;;;12.40;;
39782;SDS011;25462;51.164;17.100;2022-08-19T17:20:22;15.50;;;12.60;;
39782;SDS011;25462;51.164;17.100;2022-08-19T17:25:25;14.00;;;12.30;;
39782;SDS011;25462;51.164;17.100;2022-08-19T17:30:30;12.40;;;11.10;;
39782;SDS011;25462;51.164;17.100;2022-08-19T17:35:36;13.90;;;10.90;;
39782;SDS011;25462;51.164;17.100;2022-08-19T17:40:46;13.40;;;11.00;;
39782;SDS011;25462;51.164;17.100;2022-08-19T17:45:48;16.10;;;11.20;;
39782;SDS011;25462;51.164;17.100;2022-08-19T17:50:50;12.20;;;11.00;;
39782;SDS011;25462;51.164;17.100;2022-08-19T17:55:55;13.90;;;12.60;;
39782;SDS011;25462;51.164;17.100;2022-08-19T18:01:00;16.20;;;11.90;;
39782;SDS011;25462;51.164;17.100;2022-08-19T18:06:04;15.40;;;12.00;;
39782;SDS011;25462;51.164;17.100;2022-08-19T18:11:07;12.40;;;11.20;;
39782;SDS011;25462;51.164;17.100;2022-08-19T18:16:11;12.50;;;11.20;;
39782;SDS011;25462;51.164;17.100;2022-08-19T18:21:14;14.50;;;13.00;;
39782;SDS011;25462;51.164;17.100;2022-08-19T18:26:16;12.80;;;11.50;;
39782;SDS011;25462;51.164;17.100;2022-08-19T18:31:19;13.20;;;11.90;;
39782;SDS011;25462;51.164;17.100;2022-08-19T18:36:25;15.80;;;12.40;;
39782;SDS011;25462;51.164;17.100;2022-08-19T18:41:48;14.50;;;12.90;;
39782;SDS011;25462;51.164;17.100;2022-08-19T18:47:09;13.90;;;12.40;;
39782;SDS011;25462;51.164;17.100;2022-08-19T18:52:30;16.90;;;13.80;;
39782;SDS011;25462;51.164;17.100;2022-08-19T18:57:34;14.70;;;12.90;;
39782;SDS011;25462;51.164;17.100;2022-08-19T19:02:36;15.50;;;13.60;;
39782;SDS011;25462;51.164;17.100;2022-08-19T19:07:42;15.00;;;13.60;;
39782;SDS011;25462;51.164;17.100;2022-08-19T19:12:44;21.50;;;14.80;;
39782;SDS011;25462;51.164;17.100;2022-08-19T19:17:46;17.40;;;13.70;;
39782;SDS011;25462;51.164;17.100;2022-08-19T19:22:49;13.90;;;12.50;;
39782;SDS011;25462;51.164;17.100;2022-08-19T19:27:56;14.70;;;13.20;;
39782;SDS011;25462;51.164;17.100;2022-08-19T19:33:07;14.60;;;13.00;;
39782;SDS011;25462;51.164;17.100;2022-08-19T19:38:09;14.80;;;13.40;;
39782;SDS011;25462;51.164;17.100;2022-08-19T19:43:12;15.30;;;12.90;;
39782;SDS011;25462;51.164;17.100;2022-08-19T19:48:27;15.50;;;12.30;;
39782;SDS011;25462;51.164;17.100;2022-08-19T19:53:32;13.80;;;12.30;;
39782;SDS011;25462;51.164;17.100;2022-08-19T19:58:34;16.20;;;14.10;;
39782;SDS011;25462;51.164;17.100;2022-08-19T20:03:43;13.70;;;8.90;;
39782;SDS011;25462;51.164;17.100;2022-08-19T20:08:45;12.70;;;8.90;;
39782;SDS011;25462;51.164;17.100;2022-08-19T20:14:11;9.30;;;8.00;;
39782;SDS011;25462;51.164;17.100;2022-08-19T20:19:18;12.70;;;7.10;;
39782;SDS011;25462;51.164;17.100;2022-08-19T20:24:23;12.80;;;6.40;;
39782;SDS011;25462;51.164;17.100;2022-08-19T20:29:26;14.60;;;6.30;;
39782;SDS011;25462;51.164;17.100;2022-08-19T20:34:42;10.30;;;6.90;;
39782;SDS011;25462;51.164;17.100;2022-08-19T20:39:50;8.90;;;6.20;;
39782;SDS011;25462;51.164;17.100;2022-08-19T20:44:56;12.00;;;6.90;;
39782;SDS011;25462;51.164;17.100;2022-08-19T20:49:58;11.90;;;6.80;;
39782;SDS011;25462;51.164;17.100;2022-08-19T20:55:03;13.30;;;6.30;;
39782;SDS011;25462;51.164;17.100;2022-08-19T21:00:11;8.90;;;6.00;;
39782;SDS011;25462;51.164;17.100;2022-08-19T21:05:17;10.10;;;6.50;;
39782;SDS011;25462;51.164;17.100;2022-08-19T21:10:23;9.00;;;6.10;;
39782;SDS011;25462;51.164;17.100;2022-08-19T21:15:32;8.40;;;5.80;;
39782;SDS011;25462;51.164;17.100;2022-08-19T21:20:35;14.50;;;6.30;;
39782;SDS011;25462;51.164;17.100;2022-08-19T21:25:51;13.00;;;7.30;;
39782;SDS011;25462;51.164;17.100;2022-08-19T21:30:56;12.70;;;7.10;;
39782;SDS011;25462;51.164;17.100;2022-08-19T21:36:01;9.40;;;6.80;;
39782;SDS011;25462;51.164;17.100;2022-08-19T21:41:04;9.60;;;6.20;;
39782;SDS011;25462;51.164;17.100;2022-08-19T21:46:08;7.60;;;5.40;;
39782;SDS011;25462;51.164;17.100;2022-08-19T21:56:15;9.70;;;6.10;;
39782;SDS011;25462;51.164;17.100;2022-08-19T22:01:17;9.80;;;5.60;;
39782;SDS011;25462;51.164;17.100;2022-08-19T22:11:22;10.70;;;5.30;;
39782;SDS011;25462;51.164;17.100;2022-08-19T22:16:26;10.50;;;5.50;;
39782;SDS011;25462;51.164;17.100;2022-08-19T22:21:30;11.90;;;5.50;;
39782;SDS011;25462;51.164;17.100;2022-08-19T22:26:41;7.00;;;5.10;;
39782;SDS011;25462;51.164;17.100;2022-08-19T22:41:47;9.80;;;5.90;;
39782;SDS011;25462;51.164;17.100;2022-08-19T22:46:49;6.40;;;5.20;;
39782;SDS011;25462;51.164;17.100;2022-08-19T22:51:51;11.30;;;5.70;;
39782;SDS011;25462;51.164;17.100;2022-08-19T22:57:16;10.40;;;6.10;;
39782;SDS011;25462;51.164;17.100;2022-08-19T23:02:21;13.10;;;6.10;;
39782;SDS011;25462;51.164;17.100;2022-08-19T23:07:28;8.60;;;5.40;;
39782;SDS011;25462;51.164;17.100;2022-08-19T23:12:32;7.10;;;5.40;;
39782;SDS011;25462;51.164;17.100;2022-08-19T23:17:38;11.10;;;6.20;;
39782;SDS011;25462;51.164;17.100;2022-08-19T23:22:55;10.60;;;6.60;;
39782;SDS011;25462;51.164;17.100;2022-08-19T23:27:58;12.40;;;6.20;;
39782;SDS011;25462;51.164;17.100;2022-08-19T23:33:21;7.50;;;5.90;;
39782;SDS011;25462;51.164;17.100;2022-08-19T23:38:26;8.00;;;5.90;;
39782;SDS011;25462;51.164;17.100;2022-08-19T23:43:31;12.90;;;6.20;;
39782;SDS011;25462;51.164;17.100;2022-08-19T23:48:35;11.30;;;6.10;;
39782;SDS011;25462;51.164;17.100;2022-08-19T23:53:38;10.00;;;5.70;;
39782;SDS011;25462;51.164;17.100;2022-08-19T23:58:41;11.10;;;6.60;;
